97IA weather

Volkens Field
Carson, Iowa, United States

Public forecast

Using degrees Fahrenheit for public forecast. Weather courtesy of forecast.io.

Closest aviation weather report (METAR) to Volkens Field

Closest report is Council Bluffs Municipal Airport, 12.8 nm (23.7 km) W. Retrieved 2020/07/07 12:35 UTC (0 seconds ago):

KCBF 071235Z AUTO 05005KT 10SM CLR 22/18 A3001 RMK AO2

Closest aviation forecast (TAF) to Volkens Field

Closest forecast is Eppley Airfield, 19.0 nm (35.3 km) W. Retrieved 2020/07/07 12:24 UTC (9 minutes ago):

TAF KOMA 071121Z 0712/0812 VRB06KT P6SM FEW050 BKN200 FM071600 18006KT P6SM FEW060 SCT200 FM080200 15006KT P6SM SKC